Time;durP1;ratioP1;P1;durP2;ratioP2;P2;SDS_P1;SDS_P2;PMS_P1;PMS_P2;Temp;Humidity;BMP_temperature;BMP_pressure;BME280_temperature;BME280_humidity;BME280_pressure;Samples;Min_cycle;Max_cycle;Signal;HPM_P1;HPM_P2
2020/12/15 00:01:26;;;;;;;26.12;18.15;;;;;;;1.63;85.23;98823.56;1811258;78;21024;-68
2020/12/15 00:03:53;;;;;;;24.63;17.55;;;;;;;1.63;85.24;98825.34;1784622;80;20883;-68
2020/12/15 00:06:21;;;;;;;25.75;17.37;;;;;;;1.64;85.34;98824.45;1805354;78;20931;-68
2020/12/15 00:08:48;;;;;;;24.43;17.10;;;;;;;1.66;85.34;98830.56;1782574;80;21039;-69
2020/12/15 00:11:18;;;;;;;25.70;17.57;;;;;;;1.68;85.37;98830.06;1790843;80;21342;-69
2020/12/15 00:13:47;;;;;;;24.55;17.35;;;;;;;1.70;85.33;98833.99;1806579;78;21476;-68
2020/12/15 00:16:18;;;;;;;30.05;18.57;;;;;;;1.69;85.31;98834.45;1783105;80;21463;-68
2020/12/15 00:18:47;;;;;;;27.40;18.12;;;;;;;1.70;85.36;98836.17;1814232;78;20948;-68
2020/12/15 00:21:23;;;;;;;29.77;18.12;;;;;;;1.71;85.36;98836.60;1806004;78;20908;-68
2020/12/15 00:23:53;;;;;;;26.30;17.62;;;;;;;1.73;85.32;98837.42;1811556;78;22265;-68
2020/12/15 00:26:21;;;;;;;26.70;17.70;;;;;;;1.75;85.34;98838.27;1785352;80;21503;-68
2020/12/15 00:28:48;;;;;;;24.37;16.77;;;;;;;1.77;85.35;98845.70;1811380;78;20980;-68
2020/12/15 00:31:17;;;;;;;26.97;16.77;;;;;;;1.77;85.26;98843.06;1783678;80;21026;-67
2020/12/15 00:33:46;;;;;;;25.68;18.12;;;;;;;1.78;85.23;98849.22;1800921;78;21556;-67
2020/12/15 00:36:21;;;;;;;22.32;15.60;;;;;;;1.79;85.18;98836.40;1782024;80;21438;-67
2020/12/15 00:38:51;;;;;;;25.92;17.52;;;;;;;1.81;85.16;98837.22;1814158;79;20924;-68
2020/12/15 00:41:19;;;;;;;26.48;16.77;;;;;;;1.82;85.13;98838.11;1783620;80;20935;-67
2020/12/15 00:43:48;;;;;;;28.73;17.50;;;;;;;1.82;85.11;98839.44;1814102;78;20979;-67
2020/12/15 00:46:16;;;;;;;30.52;18.05;;;;;;;1.82;85.10;98845.59;1783922;80;20903;-68
2020/12/15 00:48:45;;;;;;;22.58;16.17;;;;;;;1.82;85.09;98840.29;1808005;78;22256;-68
2020/12/15 00:51:18;;;;;;;25.62;16.20;;;;;;;1.85;85.08;98843.33;1798987;78;21010;-68
2020/12/15 00:59:33;;;;;;;24.65;15.68;;;;;;;1.86;85.00;98837.09;1816662;78;20916;-67
2020/12/15 01:02:03;;;;;;;25.12;16.82;;;;;;;1.87;84.96;98838.84;1782186;80;21354;-68
2020/12/15 01:04:31;;;;;;;24.98;15.90;;;;;;;1.86;84.91;98837.09;1809478;78;20892;-67
2020/12/15 01:07:00;;;;;;;26.82;17.02;;;;;;;1.87;84.89;98842.35;1807291;78;21524;-67
2020/12/15 01:09:28;;;;;;;25.65;16.62;;;;;;;1.86;84.95;98838.42;1810986;79;21975;-68
2020/12/15 01:11:56;;;;;;;29.05;17.12;;;;;;;1.87;84.98;98837.52;1785587;80;21014;-68
2020/12/15 01:14:24;;;;;;;22.32;15.65;;;;;;;1.87;84.95;98841.50;1807766;78;21373;-68
2020/12/15 01:16:54;;;;;;;26.82;17.23;;;;;;;1.88;84.89;98837.95;1787305;80;20942;-68
2020/12/15 01:19:22;;;;;;;24.43;16.60;;;;;;;1.88;84.86;98840.59;1807936;78;20924;-68
2020/12/15 01:21:51;;;;;;;23.65;15.70;;;;;;;1.86;84.86;98839.75;1799374;78;21008;-68
2020/12/15 01:24:21;;;;;;;23.15;15.43;;;;;;;1.85;84.90;98838.89;1782302;80;21086;-68
2020/12/15 01:26:56;;;;;;;26.20;16.12;;;;;;;1.87;84.90;98849.44;1809325;78;21386;-68
2020/12/15 01:29:25;;;;;;;22.02;16.73;;;;;;;1.86;84.89;98838.42;1772274;79;20951;-68
2020/12/15 01:31:52;;;;;;;19.80;13.65;;;;;;;1.87;84.90;98837.52;1777310;80;20923;-68
2020/12/15 01:34:21;;;;;;;23.73;15.40;;;;;;;1.88;84.88;98840.59;1803347;78;20952;-68
2020/12/15 01:36:52;;;;;;;20.90;14.75;;;;;;;1.86;84.86;98837.09;1779237;80;21468;-67
2020/12/15 01:39:21;;;;;;;23.77;15.15;;;;;;;1.86;84.81;98839.75;1802508;78;22014;-67
2020/12/15 01:41:51;;;;;;;23.40;14.70;;;;;;;1.85;84.79;98838.03;1780660;80;20967;-68
2020/12/15 01:44:20;;;;;;;19.50;13.72;;;;;;;1.87;84.86;98833.55;1777737;80;20940;-68
2020/12/15 01:46:50;;;;;;;18.40;13.62;;;;;;;1.86;84.84;98835.34;1785803;80;21015;-68
2020/12/15 01:49:19;;;;;;;22.98;13.35;;;;;;;1.85;84.84;98832.73;1761169;80;21591;-68
2020/12/15 01:51:48;;;;;;;20.48;14.00;;;;;;;1.86;84.83;98831.80;1811581;78;21383;-67
2020/12/15 02:00:06;;;;;;;22.42;14.38;;;;;;;1.85;84.84;98830.08;1786953;80;21041;-68
2020/12/15 02:02:42;;;;;;;23.05;15.68;;;;;;;1.85;84.77;98828.75;1807124;78;21421;-67
2020/12/15 02:05:11;;;;;;;19.55;14.28;;;;;;;1.84;84.73;98830.98;1787026;80;22009;-68
2020/12/15 02:07:42;;;;;;;17.27;13.70;;;;;;;1.84;84.76;98826.55;1774045;80;20988;-68
2020/12/15 02:10:10;;;;;;;21.45;13.48;;;;;;;1.83;84.77;98831.88;1813389;78;20979;-68
2020/12/15 02:12:40;;;;;;;22.00;14.28;;;;;;;1.83;84.83;98834.53;1808993;78;20980;-68
2020/12/15 02:15:10;;;;;;;19.80;13.88;;;;;;;1.84;84.86;98830.98;1786259;80;20979;-68
2020/12/15 02:17:40;;;;;;;21.40;14.38;;;;;;;1.83;84.85;98831.88;1813665;78;21384;-68
2020/12/15 02:20:13;;;;;;;23.10;15.75;;;;;;;1.84;84.86;98830.98;1778966;80;21043;-67
2020/12/15 02:22:48;;;;;;;19.00;13.80;;;;;;;1.85;84.92;98832.73;1768873;80;21017;-67
2020/12/15 02:25:16;;;;;;;21.57;15.05;;;;;;;1.85;84.96;98834.91;1813994;78;21015;-68
2020/12/15 02:27:45;;;;;;;23.00;14.28;;;;;;;1.83;84.94;98832.77;1783785;80;21007;-68
2020/12/15 02:30:12;;;;;;;21.05;15.20;;;;;;;1.83;84.89;98837.17;1805887;78;21362;-68
2020/12/15 02:32:40;;;;;;;23.20;15.48;;;;;;;1.84;84.88;98839.78;1806960;79;20999;-68
2020/12/15 02:35:09;;;;;;;23.35;15.75;;;;;;;1.87;84.95;98833.55;1782114;80;20947;-68
2020/12/15 02:37:37;;;;;;;23.40;13.95;;;;;;;1.86;84.93;98834.45;1814111;79;20983;-68
2020/12/15 02:40:07;;;;;;;21.77;14.60;;;;;;;1.84;84.96;98829.66;1787732;80;21011;-68
2020/12/15 02:42:53;;;;;;;19.65;14.28;;;;;;;1.85;84.98;98838.03;1809098;78;21340;-67
2020/12/15 02:45:22;;;;;;;20.27;14.60;;;;;;;1.86;84.89;98837.09;1783458;80;21463;-68
2020/12/15 02:47:50;;;;;;;19.73;14.55;;;;;;;1.85;84.84;98835.37;1785846;80;20940;-68
2020/12/15 02:50:23;;;;;;;19.70;13.58;;;;;;;1.83;84.80;98837.17;1798463;79;20945;-68
2020/12/15 02:52:53;;;;;;;22.58;14.93;;;;;;;1.83;84.79;98838.06;1783812;80;20931;-68
2020/12/15 02:58:24;;;;;;;28.80;18.62;;;;;;;1.83;84.78;98832.77;1797807;79;21365;-68
2020/12/15 03:00:53;;;;;;;22.77;15.60;;;;;;;1.81;84.82;98829.27;1788190;79;20884;-68
2020/12/15 03:03:22;;;;;;;19.35;13.95;;;;;;;1.80;84.83;98834.17;1797177;79;21476;-68
2020/12/15 03:05:51;;;;;;;17.12;13.08;;;;;;;1.80;84.86;98832.39;1785070;79;21337;-68
2020/12/15 03:08:20;;;;;;;19.30;13.15;;;;;;;1.78;84.82;98839.52;1795892;79;21374;-68
2020/12/15 03:10:49;;;;;;;19.80;13.40;;;;;;;1.78;84.81;98851.44;1787080;79;20950;-68
2020/12/15 03:13:17;;;;;;;19.62;13.25;;;;;;;1.77;84.79;98841.73;1793882;79;21353;-68
2020/12/15 03:15:45;;;;;;;19.27;13.15;;;;;;;1.77;84.81;98844.39;1774208;80;20999;-68
2020/12/15 03:18:14;;;;;;;20.27;13.72;;;;;;;1.75;84.83;98842.24;1803507;78;21046;-68
2020/12/15 03:20:46;;;;;;;18.70;13.65;;;;;;;1.73;84.80;98844.04;1803638;78;21200;-68
2020/12/15 03:23:12;;;;;;;21.02;15.15;;;;;;;1.74;84.82;98844.93;1818026;78;21829;-68
2020/12/15 03:25:40;;;;;;;25.10;15.20;;;;;;;1.74;84.84;98847.11;1780216;80;20941;-68
2020/12/15 03:28:08;;;;;;;21.27;14.45;;;;;;;1.72;84.86;98854.23;1812490;78;20987;-68
2020/12/15 03:30:38;;;;;;;23.15;16.17;;;;;;;1.72;84.94;98860.86;1807699;78;21058;-68
2020/12/15 03:33:06;;;;;;;18.75;13.05;;;;;;;1.71;84.98;98857.78;1783684;80;21236;-68
2020/12/15 03:35:33;;;;;;;17.10;12.45;;;;;;;1.71;84.98;98853.81;1803963;78;21450;-68
2020/12/15 03:38:03;;;;;;;20.35;13.85;;;;;;;1.70;84.91;98857.83;1800818;78;20940;-68
2020/12/15 03:40:33;;;;;;;19.87;13.58;;;;;;;1.71;84.80;98855.60;1808396;78;20920;-68
2020/12/15 03:43:03;;;;;;;21.97;15.70;;;;;;;1.69;84.81;98854.75;1795906;78;21020;-68
2020/12/15 03:45:32;;;;;;;17.37;13.22;;;;;;;1.67;84.83;98858.80;1781240;80;21802;-68
2020/12/15 03:48:02;;;;;;;26.25;14.15;;;;;;;1.68;84.80;98860.52;1814112;79;20928;-68
2020/12/15 03:50:30;;;;;;;19.57;12.35;;;;;;;1.66;84.77;98859.70;1786265;80;20986;-68
2020/12/15 03:52:57;;;;;;;19.82;13.80;;;;;;;1.63;84.57;98862.42;1814089;79;21087;-68
2020/12/15 03:58:31;;;;;;;19.15;13.32;;;;;;;1.56;84.81;98856.42;1806319;78;20924;-67
2020/12/15 04:01:03;;;;;;;19.45;12.80;;;;;;;1.53;84.94;98854.28;1802564;78;20947;-69
2020/12/15 04:03:31;;;;;;;19.07;13.08;;;;;;;1.52;85.07;98852.56;1809983;78;20916;-68
2020/12/15 04:06:04;;;;;;;22.62;13.22;;;;;;;1.51;85.21;98844.19;1810745;78;20939;-68
2020/12/15 04:08:33;;;;;;;22.85;14.20;;;;;;;1.51;85.21;98850.81;1777937;80;20943;-68
2020/12/15 04:11:03;;;;;;;18.27;13.13;;;;;;;1.49;85.35;98853.96;1801933;78;21367;-68
2020/12/15 04:13:34;;;;;;;17.73;12.85;;;;;;;1.50;85.47;98853.03;1803539;78;21366;-68
2020/12/15 04:16:04;;;;;;;20.35;13.43;;;;;;;1.52;85.50;98856.53;1781856;80;20939;-67
2020/12/15 04:18:34;;;;;;;20.12;12.40;;;;;;;1.51;85.33;98856.97;1808060;78;20909;-67
2020/12/15 04:21:05;;;;;;;20.60;12.93;;;;;;;1.52;85.39;98864.48;1783884;80;21381;-67
2020/12/15 04:23:33;;;;;;;19.02;12.65;;;;;;;1.50;85.30;98868.92;1809842;78;21366;-68
2020/12/15 04:26:01;;;;;;;15.85;12.05;;;;;;;1.49;85.21;98865.87;1784631;80;21005;-68
2020/12/15 04:28:34;;;;;;;13.58;10.80;;;;;;;1.47;85.07;98866.34;1809246;78;22821;-67
2020/12/15 04:31:02;;;;;;;12.33;9.48;;;;;;;1.46;85.03;98880.51;1786458;80;20931;-68
2020/12/15 04:33:31;;;;;;;19.70;13.85;;;;;;;1.40;84.82;98882.41;1770574;80;21552;-68
2020/12/15 04:35:58;;;;;;;17.05;12.55;;;;;;;1.36;84.95;98883.38;1787508;79;22326;-68
2020/12/15 04:38:26;;;;;;;13.28;11.00;;;;;;;1.35;85.22;98883.41;1792290;79;21954;-68
2020/12/15 04:40:55;;;;;;;18.15;10.13;;;;;;;1.34;85.41;98881.66;1782702;79;20921;-68
2020/12/15 04:43:24;;;;;;;18.40;11.70;;;;;;;1.35;85.44;98876.80;1791423;79;20916;-68
2020/12/15 04:45:53;;;;;;;18.55;11.55;;;;;;;1.33;85.56;98876.84;1797246;79;20880;-68
2020/12/15 04:48:23;;;;;;;16.35;11.15;;;;;;;1.33;85.62;98878.16;1792656;79;21391;-68
2020/12/15 04:51:07;;;;;;;15.32;10.13;;;;;;;1.33;85.65;98874.19;1787198;79;20998;-68
2020/12/15 04:59:43;;;;;;;20.17;12.93;;;;;;;1.31;85.67;98876.02;1788381;80;21015;-68
2020/12/15 05:02:18;;;;;;;23.10;12.93;;;;;;;1.33;85.77;98890.53;1812869;78;21398;-68
2020/12/15 05:04:46;;;;;;;15.60;12.15;;;;;;;1.32;85.73;98890.11;1789228;80;21046;-68
2020/12/15 05:07:14;;;;;;;23.65;12.63;;;;;;;1.32;85.68;98893.61;1733109;80;20974;-68
2020/12/15 05:09:58;;;;;;;22.10;13.22;;;;;;;1.31;85.75;98898.51;1802524;78;20981;-68
2020/12/15 05:12:27;;;;;;;19.87;12.58;;;;;;;1.31;85.74;98901.16;1800495;78;20958;-68
2020/12/15 05:14:55;;;;;;;19.62;13.18;;;;;;;1.31;85.70;98901.16;1786296;80;22248;-68
2020/12/15 05:17:32;;;;;;;23.80;16.12;;;;;;;1.32;85.69;98897.58;1807945;78;20952;-68
2020/12/15 05:20:10;;;;;;;34.23;19.92;;;;;;;1.32;85.72;98901.55;1806989;78;20924;-69
2020/12/15 05:22:47;;;;;;;42.13;20.90;;;;;;;1.33;85.71;98909.06;1811334;79;21476;-69
2020/12/15 05:25:27;;;;;;;26.45;16.07;;;;;;;1.32;85.66;98908.63;1781125;80;21022;-67
2020/12/15 05:28:01;;;;;;;20.05;13.90;;;;;;;1.32;85.67;98908.16;1801839;78;22258;-68
2020/12/15 07:30:09;;;;;;;107.40;68.67;;;;;;;0.70;85.64;98974.33;1782325;80;20941;-69
2020/12/15 07:32:39;;;;;;;46.15;32.40;;;;;;;0.70;85.47;98974.33;1803442;79;21056;-71
2020/12/15 07:35:20;;;;;;;44.15;26.93;;;;;;;0.72;85.52;98979.59;1775744;80;20923;-71
2020/12/15 07:37:56;;;;;;;28.57;16.48;;;;;;;0.71;85.45;98976.55;1790626;78;21191;-71
2020/12/15 07:40:21;;;;;;;21.65;16.93;;;;;;;0.72;85.72;98985.73;1789735;78;21563;-71
2020/12/15 07:43:00;;;;;;;18.17;14.35;;;;;;;0.74;85.68;98991.45;1775793;80;20920;-70
2020/12/15 07:45:30;;;;;;;15.32;10.95;;;;;;;0.74;85.40;98983.52;1761715;80;20996;-68
2020/12/15 07:47:58;;;;;;;29.40;18.25;;;;;;;0.74;85.40;98991.45;1787805;78;20932;-70
2020/12/15 07:50:30;;;;;;;28.80;15.85;;;;;;;0.75;85.48;98990.56;1772701;79;21380;-70
2020/12/15 07:53:09;;;;;;;16.73;12.88;;;;;;;0.75;85.43;98990.56;1794669;79;21000;-73
2020/12/15 07:58:40;;;;;;;18.55;10.50;;;;;;;0.75;85.45;99009.08;1817382;77;20919;-70
2020/12/15 08:01:08;;;;;;;13.62;9.83;;;;;;;0.75;85.64;98998.50;1799368;78;20968;-71
2020/12/15 08:03:36;;;;;;;28.60;11.68;;;;;;;0.77;85.60;99000.66;1823316;77;21350;-71
2020/12/15 08:06:09;;;;;;;16.07;10.13;;;;;;;0.79;85.62;99007.66;1818354;77;21028;-69
2020/12/15 08:08:37;;;;;;;32.95;17.75;;;;;;;0.81;85.67;98997.06;1819512;77;21029;-72
2020/12/15 08:11:18;;;;;;;14.75;10.25;;;;;;;0.85;85.62;99002.69;1800245;78;20921;-70
2020/12/15 08:13:47;;;;;;;23.98;15.40;;;;;;;0.89;85.56;99008.34;1743671;80;21055;-69
2020/12/15 08:16:15;;;;;;;26.55;17.23;;;;;;;0.93;85.60;99008.72;1817544;78;21352;-69
2020/12/15 08:18:43;;;;;;;16.60;10.23;;;;;;;0.96;85.58;99001.14;1786874;79;21572;-69
2020/12/15 08:21:15;;;;;;;29.55;16.37;;;;;;;1.00;85.44;99004.16;1775109;79;21365;-68
2020/12/15 08:23:52;;;;;;;23.10;16.23;;;;;;;1.03;85.28;98999.67;1785902;79;20936;-69
2020/12/15 08:26:21;;;;;;;35.28;19.20;;;;;;;1.05;85.22;99000.49;1769263;79;21000;-70
2020/12/15 08:28:49;;;;;;;15.13;11.35;;;;;;;1.10;85.39;99004.83;1799974;78;21337;-70
2020/12/15 08:31:18;;;;;;;15.65;11.73;;;;;;;1.13;85.38;99010.92;1773272;80;21030;-70
2020/12/15 08:33:48;;;;;;;22.32;10.95;;;;;;;1.17;85.19;99010.42;1746448;80;21091;-69
2020/12/15 08:36:17;;;;;;;23.12;10.95;;;;;;;1.22;85.11;99004.57;1796386;78;21503;-70
2020/12/15 08:38:44;;;;;;;22.98;13.30;;;;;;;1.25;84.94;99005.83;1797261;79;20946;-70
2020/12/15 08:41:14;;;;;;;19.17;11.75;;;;;;;1.29;84.65;99005.30;1834108;77;21193;-70
2020/12/15 08:43:43;;;;;;;14.18;11.40;;;;;;;1.31;84.51;99008.77;1757797;79;20925;-70
2020/12/15 08:46:18;;;;;;;19.70;11.63;;;;;;;1.32;84.43;99006.09;1753223;80;20976;-70
2020/12/15 08:48:47;;;;;;;16.87;10.45;;;;;;;1.34;84.61;99012.25;1756242;80;20964;-70
2020/12/15 08:51:16;;;;;;;22.22;10.15;;;;;;;1.36;84.49;99007.78;1749549;80;20933;-71
2020/12/15 08:59:49;;;;;;;18.02;9.80;;;;;;;1.47;84.28;99001.36;1828840;77;20971;-69
2020/12/15 09:02:23;;;;;;;22.75;10.85;;;;;;;1.50;84.11;98998.64;1826056;77;20931;-71
2020/12/15 09:04:51;;;;;;;18.05;13.00;;;;;;;1.52;84.04;98996.84;1782027;79;21475;-70
2020/12/15 09:07:19;;;;;;;18.48;12.10;;;;;;;1.53;83.84;98999.47;1780183;79;21364;-70
2020/12/15 09:09:46;;;;;;;38.02;20.15;;;;;;;1.56;83.80;99003.36;1792115;79;20953;-71
2020/12/15 09:12:16;;;;;;;16.50;12.40;;;;;;;1.59;83.67;98999.75;1831779;77;21454;-71
2020/12/15 09:14:43;;;;;;;14.03;11.00;;;;;;;1.63;83.31;98997.47;1827391;77;20919;-72
2020/12/15 09:17:10;;;;;;;14.40;8.28;;;;;;;1.63;83.13;98998.79;1798866;79;21475;-72
2020/12/15 09:19:41;;;;;;;9.18;8.15;;;;;;;1.65;83.08;99000.94;1818471;77;21798;-72
2020/12/15 09:22:09;;;;;;;11.22;8.93;;;;;;;1.68;82.84;99000.87;1831934;77;21114;-72
2020/12/15 09:24:43;;;;;;;12.07;9.55;;;;;;;1.70;82.50;99000.37;1725986;80;20940;-71
2020/12/15 09:27:23;;;;;;;19.55;11.80;;;;;;;1.70;82.62;99000.37;1781037;78;20928;-68
2020/12/15 09:29:51;;;;;;;27.05;18.42;;;;;;;1.71;82.76;98998.14;1830673;77;20963;-73
2020/12/15 09:32:20;;;;;;;21.27;14.70;;;;;;;1.70;82.51;98998.19;1775111;79;21037;-73
2020/12/15 09:34:47;;;;;;;19.10;11.60;;;;;;;1.68;82.78;98994.24;1799076;79;21067;-71
2020/12/15 09:37:16;;;;;;;10.45;8.88;;;;;;;1.67;82.90;98991.20;1828987;77;20894;-72
2020/12/15 09:39:45;;;;;;;17.98;12.68;;;;;;;1.68;82.78;98990.27;1829018;77;20925;-73
2020/12/15 09:42:15;;;;;;;19.27;9.65;;;;;;;1.65;83.00;98990.34;1783527;78;20998;-71
2020/12/15 09:44:43;;;;;;;10.48;7.78;;;;;;;1.65;83.10;98990.34;1810928;77;21886;-72
2020/12/15 09:47:11;;;;;;;14.50;12.78;;;;;;;1.62;82.67;98991.73;1811718;77;21548;-71
2020/12/15 09:49:38;;;;;;;15.43;11.63;;;;;;;1.62;82.65;98989.98;1779307;79;20952;-71
2020/12/15 09:52:05;;;;;;;18.98;12.03;;;;;;;1.61;82.89;98988.23;1819962;77;20916;-71
2020/12/15 09:54:33;;;;;;;13.20;11.83;;;;;;;1.61;82.90;98980.75;1824032;77;20903;-72
2020/12/15 09:57:01;;;;;;;14.63;12.98;;;;;;;1.57;82.78;98983.91;1787421;79;21125;-71
2020/12/15 09:59:28;;;;;;;13.45;11.48;;;;;;;1.55;82.88;98986.19;1825959;77;21580;-72
2020/12/15 10:01:56;;;;;;;12.18;9.93;;;;;;;1.53;82.87;98980.03;1773335;79;20991;-72
2020/12/15 10:04:24;;;;;;;10.82;8.65;;;;;;;1.55;83.04;98979.11;1761796;80;20917;-72
2020/12/15 10:06:51;;;;;;;10.58;9.45;;;;;;;1.56;83.06;98983.94;1837215;77;21079;-72
2020/12/15 10:09:19;;;;;;;18.20;10.85;;;;;;;1.56;82.93;98976.00;1760478;79;21043;-72
2020/12/15 10:11:48;;;;;;;10.58;9.45;;;;;;;1.55;83.05;98978.25;1757651;80;21055;-70
2020/12/15 10:14:15;;;;;;;11.25;9.08;;;;;;;1.58;83.21;98980.83;1735798;80;21111;-71
2020/12/15 10:16:44;;;;;;;12.33;9.13;;;;;;;1.60;83.08;98983.83;1753194;80;20913;-72
2020/12/15 10:19:11;;;;;;;12.37;10.53;;;;;;;1.62;83.16;98977.17;1838238;77;21342;-72
2020/12/15 10:21:40;;;;;;;12.73;10.05;;;;;;;1.63;83.17;98975.81;1830686;77;21375;-71
2020/12/15 10:24:08;;;;;;;9.98;8.98;;;;;;;1.66;83.09;98977.53;1822835;77;20995;-71
2020/12/15 10:26:35;;;;;;;17.12;12.53;;;;;;;1.69;82.83;98973.92;1817718;77;20872;-72
2020/12/15 10:29:03;;;;;;;13.50;10.95;;;;;;;1.71;82.69;98974.31;1823627;77;21500;-71
2020/12/15 10:31:30;;;;;;;19.48;10.85;;;;;;;1.73;82.94;98969.84;1823721;77;20955;-71
2020/12/15 10:33:58;;;;;;;13.25;10.58;;;;;;;1.76;83.15;98967.11;1822247;77;21362;-72
2020/12/15 10:36:27;;;;;;;15.45;11.22;;;;;;;1.80;83.27;98960.84;1779171;79;21385;-72
2020/12/15 10:38:56;;;;;;;20.45;14.33;;;;;;;1.86;83.19;98961.59;1786275;79;20976;-72
2020/12/15 10:41:26;;;;;;;23.65;17.90;;;;;;;1.88;83.44;98958.48;1796211;78;20929;-73
2020/12/15 10:43:53;;;;;;;27.40;19.15;;;;;;;1.92;83.70;98958.80;1823199;77;20967;-73
2020/12/15 10:46:24;;;;;;;23.92;16.57;;;;;;;1.98;83.93;98957.31;1818272;77;21465;-71
2020/12/15 10:48:52;;;;;;;34.70;22.62;;;;;;;2.05;84.00;98958.91;1795223;78;21541;-71
2020/12/15 10:51:20;;;;;;;61.00;41.05;;;;;;;2.08;83.45;98952.21;1822088;77;20928;-72
2020/12/15 10:53:47;;;;;;;35.92;25.08;;;;;;;2.10;83.06;98950.38;1777660;79;21083;-72
2020/12/15 10:56:14;;;;;;;22.67;17.50;;;;;;;2.11;82.94;98952.13;1760158;80;21426;-72
2020/12/15 10:58:42;;;;;;;16.57;13.32;;;;;;;2.08;82.45;98949.56;1802661;79;22087;-72
2020/12/15 11:01:11;;;;;;;16.35;14.23;;;;;;;2.07;82.51;98939.86;1817519;77;21631;-71
2020/12/15 11:03:40;;;;;;;43.55;30.72;;;;;;;2.08;82.38;98938.95;1761420;79;20984;-73
2020/12/15 11:06:07;;;;;;;26.33;16.52;;;;;;;2.08;82.31;98944.27;1803494;79;20972;-69
2020/12/15 11:08:35;;;;;;;14.10;11.75;;;;;;;2.08;82.70;98940.28;1818406;77;20872;-72
2020/12/15 11:11:03;;;;;;;14.28;12.18;;;;;;;2.10;82.93;98929.18;1775953;79;21360;-71
2020/12/15 11:13:31;;;;;;;14.28;11.20;;;;;;;2.12;82.92;98936.63;1833227;77;20951;-72
2020/12/15 11:15:59;;;;;;;13.40;11.83;;;;;;;2.15;82.90;98929.92;1769043;79;20921;-72
2020/12/15 11:18:26;;;;;;;14.60;10.93;;;;;;;2.20;82.79;98935.56;1824018;77;21055;-72
2020/12/15 11:20:53;;;;;;;17.42;12.93;;;;;;;2.22;82.62;98938.56;1785437;78;20952;-72
2020/12/15 11:23:24;;;;;;;13.93;11.97;;;;;;;2.23;82.42;98934.16;1817718;77;21812;-72
2020/12/15 11:25:54;;;;;;;14.55;11.57;;;;;;;2.23;82.22;98939.45;1785496;78;21628;-71
2020/12/15 11:28:21;;;;;;;15.98;11.55;;;;;;;2.23;82.05;98934.16;1797837;78;21004;-72
2020/12/15 11:30:50;;;;;;;21.55;18.20;;;;;;;2.21;81.80;98928.00;1785289;79;20943;-72
2020/12/15 11:33:17;;;;;;;20.48;17.82;;;;;;;2.20;82.00;98938.21;1828065;77;21007;-73
2020/12/15 11:35:46;;;;;;;24.27;20.90;;;;;;;2.16;82.05;98936.97;1769503;79;21147;-72
2020/12/15 11:38:15;;;;;;;42.30;30.23;;;;;;;2.13;81.89;98942.34;1831163;77;20908;-72
2020/12/15 11:40:42;;;;;;;19.67;15.85;;;;;;;2.11;81.71;98940.20;1823850;77;20975;-72
2020/12/15 11:43:10;;;;;;;21.70;16.32;;;;;;;2.08;81.79;98940.28;1827011;77;21078;-72
2020/12/15 11:45:38;;;;;;;40.43;29.20;;;;;;;2.06;81.83;98935.92;1799721;78;21007;-71
2020/12/15 11:48:05;;;;;;;28.35;20.48;;;;;;;2.02;82.30;98936.47;1831146;77;21195;-71
2020/12/15 11:50:32;;;;;;;27.50;20.65;;;;;;;2.01;82.52;98934.72;1819750;77;20987;-72
2020/12/15 11:53:01;;;;;;;13.68;12.05;;;;;;;2.02;82.64;98948.39;1818016;77;20995;-71
2020/12/15 11:55:30;;;;;;;14.73;12.05;;;;;;;2.01;82.70;98937.37;1790845;79;20936;-71
2020/12/15 11:57:57;;;;;;;17.62;13.10;;;;;;;2.04;82.86;98944.38;1832417;77;21010;-71
2020/12/15 12:00:26;;;;;;;25.95;17.50;;;;;;;2.05;83.03;98943.02;1811038;77;22304;-72
2020/12/15 12:02:53;;;;;;;19.70;16.02;;;;;;;2.07;83.19;98931.91;1779777;79;20955;-72
2020/12/15 12:05:20;;;;;;;19.70;15.28;;;;;;;2.10;83.25;98931.83;1824242;77;21046;-71
2020/12/15 12:07:50;;;;;;;15.00;13.40;;;;;;;2.15;83.27;98931.24;1781708;79;20991;-72
2020/12/15 12:10:17;;;;;;;20.17;15.10;;;;;;;2.19;83.35;98930.70;1790521;79;21588;-72
2020/12/15 12:12:46;;;;;;;16.20;14.05;;;;;;;2.22;83.22;98926.64;1743674;79;21825;-72
2020/12/15 12:15:14;;;;;;;23.27;17.07;;;;;;;2.25;83.20;98924.38;1771645;80;20936;-72
2020/12/15 12:17:42;;;;;;;35.92;23.87;;;;;;;2.26;83.21;98933.61;1828055;77;20965;-71
2020/12/15 12:20:09;;;;;;;25.65;18.90;;;;;;;2.30;83.25;98938.36;1812273;78;21035;-71
2020/12/15 12:22:36;;;;;;;17.67;13.80;;;;;;;2.33;83.46;98936.52;1796454;78;21342;-71
2020/12/15 12:25:05;;;;;;;20.70;16.75;;;;;;;2.35;83.39;98944.44;1801837;78;20920;-72
2020/12/15 12:27:37;;;;;;;23.07;15.63;;;;;;;2.37;83.32;98941.74;1770809;80;20952;-73
2020/12/15 12:30:05;;;;;;;16.55;14.03;;;;;;;2.37;83.29;98945.25;1773063;80;21155;-71
2020/12/15 12:32:32;;;;;;;20.02;13.70;;;;;;;2.38;83.32;98949.66;1755348;80;20924;-71
2020/12/15 12:35:00;;;;;;;17.57;12.50;;;;;;;2.41;83.33;98949.54;1756073;80;20956;-70
2020/12/15 12:37:28;;;;;;;27.10;18.32;;;;;;;2.42;83.17;98957.91;1770068;80;21203;-70
2020/12/15 12:39:57;;;;;;;21.12;16.17;;;;;;;2.43;83.11;98958.34;1827276;77;20940;-71
2020/12/15 12:42:24;;;;;;;18.65;13.03;;;;;;;2.44;83.09;98962.71;1822643;77;20896;-70
2020/12/15 12:44:54;;;;;;;15.80;13.93;;;;;;;2.43;82.96;98960.99;1823488;77;21042;-71
2020/12/15 12:47:23;;;;;;;18.60;13.98;;;;;;;2.40;82.59;98952.23;1778324;78;21090;-71
2020/12/15 12:49:52;;;;;;;23.10;17.15;;;;;;;2.36;82.94;98954.11;1811219;77;21780;-71
2020/12/15 12:52:19;;;;;;;23.67;16.62;;;;;;;2.32;83.31;98961.28;1793337;78;20952;-71
2020/12/15 12:54:47;;;;;;;18.75;15.45;;;;;;;2.32;83.73;98954.66;1777086;79;21068;-70
2020/12/15 12:57:15;;;;;;;22.30;17.30;;;;;;;2.33;83.90;98944.91;1765267;80;20931;-71
2020/12/15 12:59:42;;;;;;;22.35;17.05;;;;;;;2.34;84.02;98956.80;1771267;80;20926;-71
2020/12/15 13:02:11;;;;;;;21.42;17.12;;;;;;;2.36;84.02;98955.43;1823571;77;21566;-72
2020/12/15 13:04:42;;;;;;;19.32;15.28;;;;;;;2.38;84.11;98952.30;1832346;77;21406;-70
2020/12/15 13:07:09;;;;;;;21.07;15.65;;;;;;;2.39;84.22;98959.33;1775290;79;21000;-71
2020/12/15 13:09:39;;;;;;;20.10;16.00;;;;;;;2.42;84.25;98961.89;1764375;79;21001;-71
2020/12/15 13:12:07;;;;;;;23.83;16.70;;;;;;;2.43;84.20;98961.42;1766137;80;21065;-70
2020/12/15 13:14:34;;;;;;;22.32;16.90;;;;;;;2.46;84.29;98963.56;1751018;80;21489;-70
2020/12/15 13:17:02;;;;;;;21.37;17.15;;;;;;;2.48;84.32;98973.66;1790199;79;21484;-70
2020/12/15 13:19:29;;;;;;;19.15;15.08;;;;;;;2.51;84.40;98974.05;1749384;81;21047;-71
2020/12/15 13:22:00;;;;;;;23.12;15.58;;;;;;;2.55;84.35;98972.17;1772618;79;21003;-71
2020/12/15 13:24:27;;;;;;;23.45;15.98;;;;;;;2.56;84.23;98973.92;1774404;80;20932;-70
2020/12/15 13:26:55;;;;;;;22.13;16.50;;;;;;;2.57;84.26;98966.36;1793042;79;21196;-71
2020/12/15 13:29:22;;;;;;;19.02;15.85;;;;;;;2.58;84.19;98970.30;1827349;77;20944;-71
2020/12/15 13:31:51;;;;;;;19.82;14.70;;;;;;;2.60;84.23;98965.84;1794495;79;21007;-71
2020/12/15 13:34:18;;;;;;;25.48;16.73;;;;;;;2.60;84.23;98964.95;1796223;79;21054;-71
2020/12/15 13:36:46;;;;;;;22.60;16.90;;;;;;;2.61;84.23;98978.16;1789035;79;20880;-70
2020/12/15 13:39:13;;;;;;;24.25;17.42;;;;;;;2.62;84.23;98965.80;1750245;80;21203;-70
2020/12/15 13:41:41;;;;;;;22.52;17.15;;;;;;;2.64;84.36;98967.94;1785456;79;21019;-71
2020/12/15 13:44:08;;;;;;;25.37;20.23;;;;;;;2.67;84.40;98964.73;1772618;80;21114;-71
2020/12/15 13:46:35;;;;;;;33.00;22.82;;;;;;;2.67;84.22;98963.87;1792137;78;20928;-70
2020/12/15 13:49:04;;;;;;;25.00;20.72;;;;;;;2.69;84.17;98967.34;1771264;80;20936;-71
2020/12/15 13:51:38;;;;;;;25.85;20.05;;;;;;;2.69;84.11;98967.34;1773865;80;21902;-70
2020/12/15 13:54:06;;;;;;;29.25;19.95;;;;;;;2.70;84.10;98965.12;1781911;79;20929;-70
2020/12/15 13:56:33;;;;;;;30.62;23.05;;;;;;;2.71;84.18;98959.77;1789626;79;21338;-70
2020/12/15 13:59:01;;;;;;;33.78;24.63;;;;;;;2.71;84.22;98962.86;1773218;79;21023;-70
2020/12/15 14:01:28;;;;;;;26.65;20.02;;;;;;;2.71;84.25;98964.18;1796687;79;21003;-70
2020/12/15 14:03:56;;;;;;;27.35;19.85;;;;;;;2.70;84.14;98957.16;1790778;79;21324;-71
2020/12/15 14:06:23;;;;;;;40.48;26.12;;;;;;;2.70;84.02;98957.16;1777376;79;21019;-71
2020/12/15 14:08:51;;;;;;;26.42;20.50;;;;;;;2.70;84.10;98956.69;1776245;79;21023;-71